Time;durP1;ratioP1;P1;durP2;ratioP2;P2;SDS_P1;SDS_P2;PMS_P1;PMS_P2;Temp;Humidity;BMP_temperature;BMP_pressure;BME280_temperature;BME280_humidity;BME280_pressure;Samples;Min_cycle;Max_cycle;Signal;HPM_P1;HPM_P2
2020/12/11 00:01:36;;;;;;;18.80;10.23;;;2.50;99.90;;;;;;5133434;27;20194;-76
2020/12/11 00:04:03;;;;;;;18.97;10.17;;;2.60;99.90;;;;;;5132666;27;20361;-77
2020/12/11 00:06:30;;;;;;;20.43;10.57;;;2.60;99.90;;;;;;5133652;27;20234;-78
2020/12/11 00:08:56;;;;;;;20.70;10.80;;;2.60;99.90;;;;;;5132629;27;20292;-77
2020/12/11 00:11:27;;;;;;;18.00;10.03;;;2.40;99.90;;;;;;5133365;27;20199;-77
2020/12/11 00:13:54;;;;;;;18.17;9.93;;;2.50;99.90;;;;;;5132231;27;20205;-77
2020/12/11 00:16:20;;;;;;;16.97;9.13;;;2.40;99.90;;;;;;5132489;27;20202;-77
2020/12/11 00:18:46;;;;;;;20.57;10.53;;;2.40;99.90;;;;;;5132726;27;20309;-77
2020/12/11 00:21:14;;;;;;;21.43;11.07;;;2.40;99.90;;;;;;5132915;27;20190;-77
2020/12/11 00:23:40;;;;;;;16.47;10.00;;;2.40;99.90;;;;;;5133133;27;20258;-76
2020/12/11 00:26:06;;;;;;;17.30;9.97;;;2.30;99.90;;;;;;5132341;27;20652;-77
2020/12/11 00:28:33;;;;;;;19.43;11.17;;;2.30;99.90;;;;;;5133297;27;20201;-76
2020/12/11 00:30:59;;;;;;;18.60;10.40;;;2.20;99.90;;;;;;5132059;27;20567;-76
2020/12/11 00:33:26;;;;;;;17.57;9.73;;;2.10;99.90;;;;;;5132543;27;20731;-78
2020/12/11 00:35:53;;;;;;;18.07;9.97;;;2.10;99.90;;;;;;5132608;27;20657;-76
2020/12/11 00:38:21;;;;;;;18.67;10.03;;;2.20;99.90;;;;;;5133054;27;20198;-77
2020/12/11 00:40:47;;;;;;;20.43;11.03;;;2.20;99.90;;;;;;5132698;27;20216;-76
2020/12/11 00:43:13;;;;;;;21.27;10.03;;;2.10;99.90;;;;;;5132450;27;20524;-76
2020/12/11 00:45:40;;;;;;;19.33;10.53;;;2.10;99.90;;;;;;5131688;27;20225;-76
2020/12/11 00:48:07;;;;;;;19.60;10.23;;;2.20;99.90;;;;;;5133260;27;20240;-77
2020/12/11 00:50:33;;;;;;;21.50;10.50;;;2.10;99.90;;;;;;5132521;27;20194;-76
2020/12/11 00:52:59;;;;;;;18.17;10.33;;;2.20;99.90;;;;;;5132617;27;20202;-76
2020/12/11 00:55:27;;;;;;;20.17;10.80;;;2.10;99.90;;;;;;5146706;27;20198;-76
2020/12/11 00:57:53;;;;;;;18.80;10.73;;;2.00;99.90;;;;;;5132547;27;20210;-77
2020/12/11 01:00:19;;;;;;;19.33;9.67;;;2.00;99.90;;;;;;5132580;27;20670;-77
2020/12/11 01:02:46;;;;;;;17.37;9.80;;;2.00;99.90;;;;;;5118025;27;20196;-76
2020/12/11 01:05:12;;;;;;;19.50;10.10;;;2.00;99.90;;;;;;5132538;27;20226;-77
2020/12/11 01:07:38;;;;;;;20.60;10.17;;;2.00;99.90;;;;;;5134851;27;20268;-78
2020/12/11 01:10:05;;;;;;;18.10;10.00;;;2.00;99.90;;;;;;5134550;27;20231;-78
2020/12/11 01:12:32;;;;;;;19.43;10.70;;;2.00;99.90;;;;;;5134434;27;20210;-76
2020/12/11 01:14:59;;;;;;;19.27;10.23;;;2.00;99.90;;;;;;5134310;27;20194;-78
2020/12/11 01:17:25;;;;;;;21.13;9.93;;;2.00;99.90;;;;;;5133980;27;20195;-79
2020/12/11 01:19:51;;;;;;;18.60;9.63;;;2.00;99.90;;;;;;5134205;27;20194;-78
2020/12/11 01:22:18;;;;;;;20.77;10.03;;;1.90;99.90;;;;;;5134038;27;20206;-77
2020/12/11 01:24:44;;;;;;;17.50;9.93;;;1.90;99.90;;;;;;5131775;27;20629;-77
2020/12/11 01:27:12;;;;;;;18.50;10.47;;;2.00;99.90;;;;;;5132363;27;20304;-77
2020/12/11 01:29:39;;;;;;;19.10;10.37;;;1.90;99.90;;;;;;5131462;27;20203;-76
2020/12/11 01:32:06;;;;;;;17.00;9.50;;;2.00;99.90;;;;;;5130836;27;20208;-76
2020/12/11 01:34:32;;;;;;;18.90;9.63;;;2.00;99.90;;;;;;5131251;27;20611;-76
2020/12/11 01:37:03;;;;;;;17.00;9.60;;;1.90;99.90;;;;;;5132488;27;20206;-78
2020/12/11 01:39:29;;;;;;;16.67;9.30;;;2.00;99.90;;;;;;5129638;27;20276;-77
2020/12/11 01:41:56;;;;;;;17.70;9.30;;;2.00;99.90;;;;;;5112105;27;20205;-77
2020/12/11 01:44:22;;;;;;;16.50;9.13;;;1.80;99.90;;;;;;5131465;27;20198;-79
2020/12/11 01:46:50;;;;;;;17.30;10.00;;;1.90;99.90;;;;;;5134757;27;20221;-77
2020/12/11 01:49:17;;;;;;;18.27;9.90;;;1.90;99.90;;;;;;5133957;27;20197;-78
2020/12/11 01:51:45;;;;;;;19.73;9.83;;;1.90;99.90;;;;;;5125770;27;20198;-77
2020/12/11 01:54:12;;;;;;;18.07;10.00;;;2.00;99.90;;;;;;5135539;27;20208;-77
2020/12/11 01:56:45;;;;;;;19.33;10.03;;;2.00;99.90;;;;;;5135716;27;20226;-76
2020/12/11 01:59:18;;;;;;;19.43;9.93;;;2.10;99.90;;;;;;5135436;27;20232;-77
2020/12/11 02:01:47;;;;;;;19.63;9.97;;;2.20;99.90;;;;;;5136027;27;20293;-78
2020/12/11 02:04:15;;;;;;;17.80;9.53;;;2.30;99.90;;;;;;5135327;27;20769;-79
2020/12/11 02:06:42;;;;;;;15.13;8.90;;;2.50;99.90;;;;;;5131463;27;20635;-77
2020/12/11 02:09:09;;;;;;;17.90;9.43;;;2.70;99.90;;;;;;5128233;27;20675;-76
2020/12/11 02:11:36;;;;;;;18.27;9.33;;;2.70;99.90;;;;;;5135582;27;20191;-79
2020/12/11 02:14:02;;;;;;;15.47;8.90;;;2.80;99.90;;;;;;5135313;27;20204;-76
2020/12/11 02:16:28;;;;;;;15.17;9.20;;;2.90;99.90;;;;;;5134992;27;20199;-78
2020/12/11 02:18:55;;;;;;;15.57;9.27;;;2.90;99.90;;;;;;5134811;27;20289;-78
2020/12/11 02:21:22;;;;;;;15.50;8.10;;;2.90;99.90;;;;;;5134577;27;20281;-76
2020/12/11 02:23:49;;;;;;;16.00;8.87;;;2.90;99.90;;;;;;5135053;27;20199;-78
2020/12/11 02:26:15;;;;;;;14.73;8.63;;;2.80;99.90;;;;;;5135574;27;20320;-78
2020/12/11 02:28:42;;;;;;;16.43;8.97;;;2.80;99.90;;;;;;5135045;27;20206;-77
2020/12/11 02:31:08;;;;;;;15.57;8.70;;;2.80;99.90;;;;;;5134920;27;20596;-78
2020/12/11 02:33:34;;;;;;;16.77;9.13;;;2.70;99.90;;;;;;5137871;27;20561;-77
2020/12/11 02:36:01;;;;;;;16.63;8.83;;;2.80;99.90;;;;;;5134880;27;20213;-76
2020/12/11 02:38:27;;;;;;;16.97;9.00;;;2.80;99.90;;;;;;5134880;27;20205;-77
2020/12/11 02:40:56;;;;;;;16.63;9.33;;;2.80;99.90;;;;;;5135044;27;20194;-79
2020/12/11 02:43:23;;;;;;;14.10;8.77;;;2.90;99.90;;;;;;5134633;27;20656;-77
2020/12/11 02:45:52;;;;;;;15.80;8.70;;;3.00;99.90;;;;;;5134285;27;20313;-76
2020/12/11 02:48:18;;;;;;;16.87;8.63;;;3.10;99.90;;;;;;5135042;27;20201;-76
2020/12/11 02:50:45;;;;;;;14.60;8.70;;;3.20;99.90;;;;;;5134112;27;20559;-77
2020/12/11 02:53:12;;;;;;;15.77;8.77;;;3.20;99.90;;;;;;5134234;27;20256;-78
2020/12/11 02:55:38;;;;;;;18.67;9.63;;;3.30;99.90;;;;;;5134258;27;20601;-78
2020/12/11 02:58:06;;;;;;;16.87;8.83;;;3.30;99.90;;;;;;5134419;27;20656;-77
2020/12/11 03:00:32;;;;;;;18.30;9.33;;;3.40;99.90;;;;;;5134062;27;20710;-77
2020/12/11 03:02:58;;;;;;;17.67;9.13;;;3.40;99.90;;;;;;5134426;27;20201;-77
2020/12/11 03:05:25;;;;;;;14.33;8.60;;;3.40;99.90;;;;;;5134344;27;20240;-77
2020/12/11 03:07:51;;;;;;;16.37;8.73;;;3.50;99.90;;;;;;5134145;27;20744;-77
2020/12/11 03:10:17;;;;;;;15.63;8.53;;;3.40;99.90;;;;;;5134573;27;20210;-76
2020/12/11 03:12:44;;;;;;;15.13;8.53;;;3.40;99.90;;;;;;5134122;27;20283;-77
2020/12/11 03:15:11;;;;;;;17.50;8.87;;;3.40;99.90;;;;;;5134006;27;20213;-76
2020/12/11 03:17:37;;;;;;;17.10;8.90;;;3.40;99.90;;;;;;5134102;27;20228;-78
2020/12/11 03:20:03;;;;;;;16.47;9.20;;;3.40;99.90;;;;;;5133951;27;20213;-76
2020/12/11 03:22:30;;;;;;;14.83;8.33;;;3.40;99.90;;;;;;5134624;27;20306;-77
2020/12/11 03:24:56;;;;;;;16.17;8.53;;;3.30;99.90;;;;;;5134047;27;20294;-78
2020/12/11 03:27:23;;;;;;;15.13;8.13;;;3.40;99.90;;;;;;5134149;27;20199;-77
2020/12/11 03:29:49;;;;;;;14.60;8.63;;;3.40;99.90;;;;;;5133172;27;20646;-77
2020/12/11 03:32:16;;;;;;;16.03;8.67;;;3.40;99.90;;;;;;5133822;27;20655;-80
2020/12/11 03:34:42;;;;;;;14.00;7.10;;;3.50;99.90;;;;;;5133578;27;20204;-78
2020/12/11 03:37:09;;;;;;;14.43;8.20;;;3.70;99.90;;;;;;5134166;27;20199;-77
2020/12/11 03:39:35;;;;;;;13.60;8.10;;;3.70;99.90;;;;;;5133252;27;20209;-77
2020/12/11 03:42:01;;;;;;;13.60;7.93;;;3.70;99.90;;;;;;5133794;27;20613;-77
2020/12/11 03:44:28;;;;;;;13.77;7.43;;;3.70;99.90;;;;;;5133656;27;20228;-77
2020/12/11 03:46:55;;;;;;;13.30;7.83;;;3.80;99.90;;;;;;5133052;27;20223;-77
2020/12/11 03:49:23;;;;;;;13.80;7.73;;;3.70;99.90;;;;;;5133197;27;20203;-77
2020/12/11 03:51:52;;;;;;;14.77;8.00;;;3.50;99.90;;;;;;5133151;27;20608;-76
2020/12/11 03:54:19;;;;;;;14.07;7.60;;;3.50;99.90;;;;;;5131881;27;20198;-77
2020/12/11 03:56:47;;;;;;;14.80;8.27;;;3.60;99.90;;;;;;5133666;27;20207;-77
2020/12/11 03:59:14;;;;;;;12.23;7.70;;;3.70;99.90;;;;;;5133082;27;20210;-77
2020/12/11 04:01:40;;;;;;;12.67;7.80;;;3.80;99.90;;;;;;5133711;27;20208;-77
2020/12/11 04:04:07;;;;;;;13.23;7.37;;;3.90;99.90;;;;;;5132652;27;20568;-78
2020/12/11 04:06:34;;;;;;;11.63;7.30;;;3.80;99.90;;;;;;5133609;27;20590;-78
2020/12/11 04:09:01;;;;;;;12.13;7.40;;;3.90;99.90;;;;;;5130428;27;20218;-76
2020/12/11 04:11:27;;;;;;;11.27;7.23;;;3.90;99.90;;;;;;5116010;27;20545;-76
2020/12/11 04:13:53;;;;;;;14.27;7.20;;;4.00;99.90;;;;;;5116097;27;20728;-76
2020/12/11 04:16:20;;;;;;;10.63;6.70;;;3.90;99.90;;;;;;5114864;27;20287;-76
2020/12/11 04:18:46;;;;;;;11.37;6.63;;;4.00;99.90;;;;;;5112862;27;20232;-79
2020/12/11 04:21:13;;;;;;;11.17;6.73;;;4.00;99.90;;;;;;5112989;27;20637;-79
2020/12/11 04:23:41;;;;;;;12.40;7.20;;;4.00;99.90;;;;;;5111897;27;20748;-77
2020/12/11 04:26:08;;;;;;;12.93;6.97;;;4.20;99.90;;;;;;5115636;27;20238;-77
2020/12/11 04:28:34;;;;;;;10.53;7.33;;;4.20;99.90;;;;;;5114938;27;20210;-77
2020/12/11 04:31:00;;;;;;;11.30;6.70;;;4.20;99.90;;;;;;5113611;27;20201;-77
2020/12/11 04:33:27;;;;;;;12.07;6.43;;;4.30;99.90;;;;;;5114901;27;20191;-76
2020/12/11 04:35:53;;;;;;;9.17;6.30;;;4.30;99.90;;;;;;5112251;27;20549;-77
2020/12/11 04:38:19;;;;;;;12.63;6.97;;;4.40;99.90;;;;;;5112251;27;20338;-77
2020/12/11 04:40:47;;;;;;;11.57;6.90;;;4.40;99.90;;;;;;5113002;27;20199;-77
2020/12/11 04:43:13;;;;;;;9.90;5.97;;;4.30;99.90;;;;;;5112900;27;20204;-77
2020/12/11 04:45:41;;;;;;;11.00;6.80;;;4.40;99.90;;;;;;5113461;27;20224;-77
2020/12/11 04:48:08;;;;;;;12.80;6.87;;;4.30;99.90;;;;;;5112343;27;20207;-77
2020/12/11 04:50:36;;;;;;;10.10;6.63;;;4.20;99.90;;;;;;5111576;27;20210;-77
2020/12/11 04:53:03;;;;;;;10.50;6.40;;;4.20;99.90;;;;;;5114629;27;20202;-76
2020/12/11 04:55:33;;;;;;;11.07;6.50;;;4.30;99.90;;;;;;5117380;27;20207;-77
2020/12/11 04:58:05;;;;;;;12.73;6.37;;;4.30;99.90;;;;;;5113597;27;20196;-75
2020/12/11 05:00:32;;;;;;;10.57;6.30;;;4.20;99.90;;;;;;5113340;27;20554;-76
2020/12/11 05:02:58;;;;;;;10.10;6.40;;;4.20;99.90;;;;;;5132593;27;20198;-77
2020/12/11 05:05:25;;;;;;;10.53;6.37;;;4.30;99.90;;;;;;5132125;27;20226;-76
2020/12/11 05:07:51;;;;;;;11.23;6.57;;;4.40;99.90;;;;;;5124791;27;20214;-76
2020/12/11 05:10:17;;;;;;;9.93;6.43;;;4.40;99.90;;;;;;5130405;27;20420;-76
2020/12/11 05:12:44;;;;;;;11.13;6.70;;;4.30;99.90;;;;;;5114615;27;20197;-76
2020/12/11 05:15:13;;;;;;;9.80;6.17;;;4.40;99.90;;;;;;5113374;27;20226;-76
2020/12/11 05:17:41;;;;;;;10.20;5.97;;;4.40;99.90;;;;;;5114767;27;20286;-76
2020/12/11 05:20:09;;;;;;;9.83;6.43;;;4.40;99.90;;;;;;5114966;27;20240;-76
2020/12/11 05:22:37;;;;;;;10.37;6.10;;;4.50;99.90;;;;;;5116873;27;20203;-76
2020/12/11 05:25:05;;;;;;;9.77;6.00;;;4.50;99.90;;;;;;5116607;27;20230;-76
2020/12/11 05:27:36;;;;;;;10.13;5.80;;;4.50;99.90;;;;;;5115975;27;20264;-79
2020/12/11 05:30:23;;;;;;;10.00;5.53;;;4.50;99.90;;;;;;5121832;27;20307;-78
2020/12/11 05:32:52;;;;;;;8.90;5.50;;;4.50;99.90;;;;;;5119001;27;20205;-76
2020/12/11 05:35:25;;;;;;;9.27;5.63;;;4.50;99.90;;;;;;5117809;27;20235;-76
2020/12/11 05:37:54;;;;;;;7.57;5.30;;;4.50;99.90;;;;;;5117099;27;20198;-76
2020/12/11 05:40:22;;;;;;;8.20;4.93;;;4.60;99.90;;;;;;5120084;27;20277;-77
2020/12/11 05:43:07;;;;;;;9.67;5.70;;;4.60;99.90;;;;;;5117135;27;20285;-77
2020/12/11 05:45:36;;;;;;;8.73;5.23;;;4.50;99.90;;;;;;5117787;27;20215;-77
2020/12/11 05:48:03;;;;;;;9.90;5.57;;;4.40;99.90;;;;;;5116587;27;20199;-78
2020/12/11 05:50:29;;;;;;;8.33;5.33;;;4.50;99.90;;;;;;5116153;27;20223;-77
2020/12/11 05:52:56;;;;;;;7.23;5.10;;;4.50;99.90;;;;;;5115374;27;20294;-76
2020/12/11 05:55:26;;;;;;;9.77;5.40;;;4.50;99.90;;;;;;5129305;27;20206;-77
2020/12/11 05:57:55;;;;;;;7.03;4.77;;;4.50;99.90;;;;;;5135894;27;20202;-77
2020/12/11 06:00:21;;;;;;;7.07;4.97;;;4.50;99.90;;;;;;5134852;27;20215;-77
2020/12/11 06:02:50;;;;;;;7.97;5.03;;;4.60;99.90;;;;;;5129657;27;20222;-76
2020/12/11 06:05:18;;;;;;;9.07;5.90;;;4.70;99.90;;;;;;5116817;27;20196;-78
2020/12/11 06:07:45;;;;;;;7.90;5.37;;;4.70;99.90;;;;;;5118895;27;20285;-77
2020/12/11 06:10:14;;;;;;;8.53;5.07;;;4.70;99.90;;;;;;5116516;27;20205;-77
2020/12/11 06:12:41;;;;;;;8.40;4.87;;;4.60;99.90;;;;;;5128022;27;20194;-78
2020/12/11 06:15:27;;;;;;;7.30;4.87;;;4.70;99.90;;;;;;5130775;27;20297;-77
2020/12/11 06:17:59;;;;;;;7.07;5.00;;;4.50;99.90;;;;;;5125020;27;20200;-77
2020/12/11 06:20:27;;;;;;;7.40;4.77;;;4.60;99.90;;;;;;5133234;27;20195;-75
2020/12/11 06:22:53;;;;;;;8.30;4.50;;;4.60;99.90;;;;;;5133636;27;20293;-76
2020/12/11 06:25:30;;;;;;;6.33;4.50;;;4.60;99.90;;;;;;5126607;27;20199;-76
2020/12/11 06:27:58;;;;;;;8.67;5.20;;;4.50;99.90;;;;;;5132169;27;20294;-77
2020/12/11 06:30:27;;;;;;;5.80;4.57;;;4.70;99.90;;;;;;5126267;27;20198;-78
2020/12/11 06:32:55;;;;;;;7.07;4.57;;;4.60;99.90;;;;;;5130419;27;20194;-78
2020/12/11 06:35:22;;;;;;;6.73;4.60;;;4.70;99.90;;;;;;5133986;27;20210;-77
2020/12/11 06:37:48;;;;;;;6.63;4.30;;;4.70;99.90;;;;;;5128686;27;20195;-77
2020/12/11 06:40:14;;;;;;;5.63;4.33;;;4.70;99.90;;;;;;5127252;27;20203;-78
2020/12/11 06:42:43;;;;;;;6.77;4.80;;;4.70;99.90;;;;;;5119741;27;20194;-77
2020/12/11 06:45:20;;;;;;;6.80;4.13;;;4.70;99.90;;;;;;5127180;27;20652;-78
2020/12/11 06:48:13;;;;;;;5.33;3.70;;;4.70;99.90;;;;;;5136741;27;20195;-78
2020/12/11 06:51:03;;;;;;;6.90;4.00;;;4.70;99.90;;;;;;5134089;27;20197;-75
2020/12/11 06:53:40;;;;;;;5.20;3.90;;;4.70;99.90;;;;;;5134224;27;20242;-78
2020/12/11 06:56:06;;;;;;;6.17;3.93;;;4.80;99.90;;;;;;5128369;27;20290;-77
2020/12/11 06:58:32;;;;;;;5.07;3.80;;;4.70;99.90;;;;;;5134467;27;20231;-77
2020/12/11 07:00:59;;;;;;;5.53;3.90;;;4.80;99.90;;;;;;5134015;27;20217;-77
2020/12/11 07:03:30;;;;;;;5.67;4.13;;;4.80;99.90;;;;;;5134320;27;20217;-78
2020/12/11 07:06:05;;;;;;;5.47;4.00;;;4.80;99.90;;;;;;5133610;27;20302;-77
2020/12/11 07:08:31;;;;;;;5.37;3.60;;;4.80;99.90;;;;;;5134324;27;20292;-79
2020/12/11 07:11:06;;;;;;;5.07;3.73;;;4.90;99.90;;;;;;5133814;27;20759;-78
2020/12/11 07:13:34;;;;;;;5.20;3.80;;;4.80;99.90;;;;;;5134192;27;20197;-79
2020/12/11 07:16:01;;;;;;;5.57;3.50;;;4.90;99.90;;;;;;5133858;27;20236;-77
2020/12/11 07:18:29;;;;;;;4.77;3.40;;;4.90;99.90;;;;;;5139990;27;20204;-78
2020/12/11 07:20:57;;;;;;;4.77;3.43;;;4.90;99.90;;;;;;5133793;27;20317;-78
2020/12/11 07:23:24;;;;;;;3.97;2.90;;;4.90;99.90;;;;;;5133652;27;20201;-77
2020/12/11 07:25:52;;;;;;;4.23;3.40;;;4.90;99.90;;;;;;5133176;27;20666;-79
2020/12/11 07:28:18;;;;;;;5.00;3.50;;;4.90;99.90;;;;;;5132722;27;20290;-77
2020/12/11 07:30:46;;;;;;;4.03;3.27;;;5.00;99.90;;;;;;5134256;27;20293;-77
2020/12/11 07:33:13;;;;;;;5.10;3.50;;;5.00;99.90;;;;;;5134090;27;20221;-82
2020/12/11 07:35:49;;;;;;;5.17;3.63;;;5.10;99.90;;;;;;5134971;27;20297;-81
2020/12/11 07:38:17;;;;;;;4.27;3.10;;;5.10;99.90;;;;;;5136040;27;20276;-77
2020/12/11 07:40:44;;;;;;;5.27;3.47;;;5.10;99.90;;;;;;5134940;27;20601;-81
2020/12/11 07:43:11;;;;;;;4.80;3.53;;;5.00;99.90;;;;;;5135422;27;20200;-80
2020/12/11 07:45:40;;;;;;;6.63;3.40;;;5.10;99.90;;;;;;5135915;27;20273;-80
2020/12/11 07:48:07;;;;;;;4.60;3.27;;;5.10;99.90;;;;;;5135741;27;20589;-79
2020/12/11 07:50:33;;;;;;;3.77;3.13;;;5.10;99.90;;;;;;5134028;27;20189;-78
2020/12/11 07:53:07;;;;;;;3.70;3.00;;;5.00;99.90;;;;;;5133249;27;20194;-78
2020/12/11 07:55:34;;;;;;;4.37;3.40;;;5.00;99.90;;;;;;5134108;27;20203;-78
2020/12/11 07:58:01;;;;;;;5.10;3.30;;;5.10;99.90;;;;;;5133598;27;20201;-78
2020/12/11 08:00:28;;;;;;;4.43;3.37;;;5.10;99.90;;;;;;5133901;27;20201;-79
2020/12/11 08:02:56;;;;;;;6.97;3.60;;;5.10;99.90;;;;;;5120980;27;20290;-78
2020/12/11 08:05:23;;;;;;;4.47;3.30;;;5.10;99.90;;;;;;5112878;28;20195;-78
2020/12/11 08:07:51;;;;;;;3.57;2.87;;;5.20;99.90;;;;;;5112817;28;20270;-78
2020/12/11 08:10:21;;;;;;;3.97;3.20;;;5.30;99.90;;;;;;5129331;27;20281;-77
2020/12/11 08:12:48;;;;;;;4.07;3.10;;;5.50;99.90;;;;;;5132980;27;20208;-78
2020/12/11 08:15:31;;;;;;;5.83;3.37;;;5.40;99.90;;;;;;5133057;27;20202;-76
2020/12/11 08:18:12;;;;;;;6.10;3.40;;;5.40;99.90;;;;;;5132022;27;20204;-77
2020/12/11 08:20:49;;;;;;;5.87;2.90;;;5.30;99.90;;;;;;5133378;27;20193;-77
2020/12/11 08:23:19;;;;;;;4.40;3.30;;;5.30;99.90;;;;;;5132818;27;20194;-78
2020/12/11 08:25:47;;;;;;;4.97;3.03;;;5.30;99.90;;;;;;5133099;27;20270;-76
2020/12/11 08:28:13;;;;;;;3.80;2.90;;;5.30;99.90;;;;;;5132583;27;20200;-76
2020/12/11 08:30:40;;;;;;;3.53;2.90;;;5.30;99.90;;;;;;5132902;27;20603;-79
2020/12/11 08:33:10;;;;;;;3.83;2.90;;;5.30;99.90;;;;;;5132851;27;20202;-80
2020/12/11 08:35:37;;;;;;;4.10;2.80;;;5.40;99.90;;;;;;5133001;27;20566;-80
2020/12/11 08:38:05;;;;;;;4.27;2.70;;;5.40;99.90;;;;;;5122934;27;20219;-80
2020/12/11 08:40:45;;;;;;;3.53;2.67;;;5.40;99.90;;;;;;5112230;28;20238;-80
2020/12/11 08:43:18;;;;;;;3.20;2.53;;;5.50;99.90;;;;;;5112139;28;20225;-80
2020/12/11 08:45:56;;;;;;;3.23;2.63;;;5.60;99.90;;;;;;5112425;28;20200;-78
2020/12/11 08:48:31;;;;;;;3.17;2.23;;;5.60;99.90;;;;;;5112337;28;20636;-78
2020/12/11 08:51:00;;;;;;;4.13;2.43;;;5.60;99.90;;;;;;5112201;28;20191;-79
2020/12/11 08:53:28;;;;;;;3.33;2.50;;;5.60;99.90;;;;;;5112005;28;20203;-80
2020/12/11 08:55:55;;;;;;;3.23;2.27;;;5.70;99.90;;;;;;5111950;28;20205;-82
2020/12/11 08:58:22;;;;;;;3.27;2.30;;;5.60;99.90;;;;;;5129983;27;20646;-81
2020/12/11 09:00:48;;;;;;;4.53;2.30;;;5.70;99.90;;;;;;5132796;27;20282;-80
2020/12/11 09:03:14;;;;;;;5.43;2.33;;;5.60;99.90;;;;;;5132509;27;20207;-79
2020/12/11 09:05:42;;;;;;;3.83;2.00;;;5.60;99.90;;;;;;5132347;27;20226;-77
2020/12/11 09:08:08;;;;;;;2.80;2.07;;;5.70;99.90;;;;;;5132613;27;20290;-77
2020/12/11 09:10:35;;;;;;;2.50;1.90;;;5.70;99.90;;;;;;5132803;28;20663;-78
2020/12/11 09:13:01;;;;;;;2.80;1.97;;;5.70;99.90;;;;;;5132940;28;20203;-79
2020/12/11 09:15:28;;;;;;;2.50;2.00;;;5.60;99.90;;;;;;5133214;28;20616;-79
2020/12/11 09:17:54;;;;;;;3.07;2.00;;;5.60;99.90;;;;;;5132572;28;20203;-77
2020/12/11 09:20:21;;;;;;;2.03;1.70;;;5.60;99.90;;;;;;5132452;28;20564;-78
2020/12/11 09:22:47;;;;;;;2.60;1.73;;;5.60;99.90;;;;;;5131933;28;20189;-81
2020/12/11 09:25:14;;;;;;;2.67;1.60;;;5.70;99.90;;;;;;5130189;27;20203;-80
2020/12/11 09:27:42;;;;;;;2.80;1.67;;;5.70;99.90;;;;;;5132012;27;20384;-78
2020/12/11 09:30:21;;;;;;;2.10;1.60;;;5.80;99.90;;;;;;5131846;27;20206;-80
2020/12/11 09:32:55;;;;;;;2.30;1.70;;;5.80;99.90;;;;;;5132496;27;20206;-80
2020/12/11 09:35:22;;;;;;;2.30;1.40;;;5.80;99.90;;;;;;5133195;27;20260;-79
2020/12/11 09:37:50;;;;;;;4.63;1.53;;;5.80;99.90;;;;;;5133265;27;20195;-78
2020/12/11 09:40:17;;;;;;;1.47;1.20;;;5.90;99.90;;;;;;5133273;27;20199;-78
2020/12/11 09:42:57;;;;;;;2.87;1.47;;;5.80;99.90;;;;;;5132638;27;20278;-80
2020/12/11 09:45:27;;;;;;;2.13;1.53;;;5.80;99.90;;;;;;5133683;27;20191;-79
2020/12/11 09:48:08;;;;;;;1.73;1.47;;;6.00;99.90;;;;;;5132891;27;20231;-80
2020/12/11 09:50:44;;;;;;;1.80;1.40;;;6.00;99.90;;;;;;5133046;27;20309;-79
2020/12/11 09:53:21;;;;;;;2.33;1.60;;;6.00;99.90;;;;;;5132863;27;20291;-79
2020/12/11 09:55:50;;;;;;;1.87;1.30;;;6.00;99.90;;;;;;5133399;27;20197;-80
2020/12/11 09:58:16;;;;;;;2.00;1.50;;;6.00;99.90;;;;;;5132922;27;20195;-79
2020/12/11 10:00:45;;;;;;;2.27;1.30;;;6.00;99.90;;;;;;5133053;27;20230;-78
2020/12/11 10:03:14;;;;;;;1.63;1.20;;;6.20;99.90;;;;;;5130653;27;20359;-79
2020/12/11 10:05:42;;;;;;;4.10;1.57;;;6.20;99.90;;;;;;5116448;27;20294;-78
2020/12/11 10:08:08;;;;;;;3.67;1.70;;;6.20;99.90;;;;;;5129726;27;20214;-78
2020/12/11 10:10:34;;;;;;;2.97;1.60;;;6.20;99.90;;;;;;5136124;27;20219;-80
2020/12/11 10:13:03;;;;;;;3.73;1.57;;;6.10;99.90;;;;;;5133359;27;20286;-77
2020/12/11 10:15:29;;;;;;;2.07;1.30;;;6.10;99.90;;;;;;5135633;27;20198;-77
2020/12/11 10:17:58;;;;;;;3.67;1.37;;;6.10;99.90;;;;;;5136474;27;20311;-78
2020/12/11 10:20:25;;;;;;;2.40;1.50;;;6.10;99.90;;;;;;5134858;27;20282;-79
2020/12/11 10:22:53;;;;;;;2.73;1.17;;;6.10;99.90;;;;;;5125779;27;20245;-78
2020/12/11 10:25:20;;;;;;;2.20;1.40;;;6.20;99.90;;;;;;5136779;27;20199;-78
2020/12/11 10:27:47;;;;;;;5.60;1.53;;;6.20;99.90;;;;;;5137243;27;20223;-78
2020/12/11 10:30:13;;;;;;;2.80;1.50;;;6.10;99.90;;;;;;5135331;27;20596;-77
2020/12/11 10:32:40;;;;;;;6.17;1.40;;;6.10;99.90;;;;;;5135614;27;20222;-77
2020/12/11 10:35:08;;;;;;;4.10;1.87;;;6.20;99.90;;;;;;5133335;27;20209;-78
2020/12/11 10:37:36;;;;;;;1.87;1.50;;;6.30;99.90;;;;;;5133387;27;20277;-79
2020/12/11 10:40:04;;;;;;;3.10;1.60;;;6.20;99.90;;;;;;5131922;27;20202;-78
2020/12/11 10:42:31;;;;;;;2.27;1.67;;;6.20;99.90;;;;;;5132575;27;20291;-77
2020/12/11 10:44:57;;;;;;;3.60;1.53;;;6.10;99.90;;;;;;5134945;27;20190;-76
2020/12/11 10:47:24;;;;;;;3.83;1.53;;;6.10;99.90;;;;;;5135215;27;20294;-78
2020/12/11 10:49:50;;;;;;;4.97;1.70;;;6.20;99.90;;;;;;5134594;27;20220;-78
2020/12/11 10:52:19;;;;;;;2.50;1.47;;;6.30;99.90;;;;;;5134843;27;20262;-77
2020/12/11 10:54:46;;;;;;;2.17;1.50;;;6.40;99.90;;;;;;5135468;27;20640;-78
2020/12/11 10:57:13;;;;;;;2.13;1.40;;;6.40;99.90;;;;;;5135541;27;20286;-76
2020/12/11 10:59:40;;;;;;;2.17;1.40;;;6.40;99.90;;;;;;5135147;27;20264;-77
2020/12/11 11:02:06;;;;;;;2.87;1.80;;;6.40;99.90;;;;;;5134258;27;20241;-77
2020/12/11 11:04:33;;;;;;;4.43;1.57;;;6.50;99.90;;;;;;5134347;27;20231;-79
2020/12/11 11:07:02;;;;;;;2.97;1.80;;;6.60;99.90;;;;;;5134537;27;20306;-78
2020/12/11 11:09:36;;;;;;;2.77;1.80;;;6.50;99.90;;;;;;5132066;27;20191;-77
2020/12/11 11:12:17;;;;;;;3.60;1.50;;;6.50;99.90;;;;;;5134581;27;20281;-77
2020/12/11 11:15:14;;;;;;;1.60;1.20;;;6.60;99.90;;;;;;5134512;27;20201;-76
2020/12/11 11:23:17;;;;;;;3.57;1.60;;;6.60;99.90;;;;;;5100726;27;20668;-77
2020/12/11 11:26:08;;;;;;;3.03;1.40;;;6.70;99.90;;;;;;5133782;27;20187;-77
2020/12/11 11:28:35;;;;;;;3.50;1.53;;;6.70;99.90;;;;;;5133424;27;20191;-76
2020/12/11 11:31:02;;;;;;;3.37;1.63;;;6.60;99.90;;;;;;5134614;27;20203;-76
2020/12/11 11:33:28;;;;;;;2.27;1.53;;;6.70;99.90;;;;;;5131622;27;20191;-77
2020/12/11 11:35:55;;;;;;;3.47;1.80;;;6.70;99.90;;;;;;5130743;27;20248;-78
2020/12/11 11:38:21;;;;;;;1.73;1.60;;;6.90;99.90;;;;;;5131850;27;20196;-77
2020/12/11 11:40:49;;;;;;;2.83;1.53;;;7.00;99.90;;;;;;5132463;27;20202;-78
2020/12/11 11:43:20;;;;;;;3.07;1.67;;;7.10;99.90;;;;;;5120398;27;20222;-77
2020/12/11 11:45:47;;;;;;;2.10;1.50;;;7.20;99.90;;;;;;5130547;27;21180;-76
2020/12/11 11:48:16;;;;;;;1.57;1.43;;;7.20;99.90;;;;;;5124043;27;20218;-76
2020/12/11 11:50:49;;;;;;;2.80;1.60;;;7.20;99.90;;;;;;5131695;27;20197;-77
2020/12/11 11:53:21;;;;;;;5.20;1.60;;;7.20;99.90;;;;;;5130493;27;20199;-79
2020/12/11 11:55:47;;;;;;;1.73;1.43;;;7.30;99.90;;;;;;5126592;27;20287;-77
2020/12/11 11:58:14;;;;;;;1.70;1.30;;;7.30;99.90;;;;;;5130719;27;20676;-78
2020/12/11 12:00:40;;;;;;;2.90;1.37;;;7.30;99.90;;;;;;5132718;27;20513;-76
2020/12/11 12:03:08;;;;;;;3.10;1.67;;;7.20;99.90;;;;;;5129615;27;20207;-78
2020/12/11 12:05:34;;;;;;;2.47;1.80;;;7.30;99.90;;;;;;5132690;27;20767;-77
2020/12/11 12:08:00;;;;;;;1.83;1.30;;;7.30;99.90;;;;;;5132434;27;20313;-77
2020/12/11 12:10:27;;;;;;;2.90;1.57;;;7.20;99.90;;;;;;5129456;27;20275;-78
2020/12/11 12:12:53;;;;;;;5.77;1.47;;;7.10;99.90;;;;;;5130690;27;20233;-78
2020/12/11 12:15:23;;;;;;;4.33;1.40;;;7.20;99.90;;;;;;5125843;27;20297;-78
2020/12/11 12:17:55;;;;;;;1.40;1.20;;;7.10;99.90;;;;;;5125449;27;20197;-78
2020/12/11 12:20:31;;;;;;;2.30;1.60;;;7.10;99.90;;;;;;5125709;27;20338;-79
2020/12/11 12:28:36;;;;;;;2.70;1.60;;;7.00;99.90;;;;;;5131197;27;20222;-78
2020/12/11 12:31:04;;;;;;;2.00;1.37;;;7.10;99.90;;;;;;5132018;27;20198;-78
2020/12/11 12:42:20;;;;;;;1.60;1.37;;;7.00;99.90;;;;;;5098037;27;794687;-78
2020/12/11 12:44:46;;;;;;;2.20;1.53;;;7.10;99.90;;;;;;5102870;28;20208;-79
2020/12/11 12:47:13;;;;;;;3.50;1.50;;;7.10;99.90;;;;;;5105581;28;20199;-80
2020/12/11 12:49:39;;;;;;;2.73;1.50;;;7.10;99.90;;;;;;5107427;28;20199;-80
2020/12/11 12:52:06;;;;;;;2.07;1.60;;;7.20;99.90;;;;;;5108518;28;20206;-78
2020/12/11 12:54:32;;;;;;;1.90;1.47;;;7.30;99.90;;;;;;5108522;28;20211;-78
2020/12/11 12:57:00;;;;;;;2.10;1.50;;;7.40;99.90;;;;;;5105090;28;20232;-79
2020/12/11 12:59:36;;;;;;;2.47;1.60;;;7.30;99.90;;;;;;5105198;28;20210;-77
2020/12/11 13:02:22;;;;;;;1.87;1.60;;;7.40;99.90;;;;;;5108068;28;20250;-76
2020/12/11 13:04:56;;;;;;;2.93;1.53;;;7.30;99.90;;;;;;5106562;28;20204;-77
2020/12/11 13:07:22;;;;;;;2.60;1.47;;;7.30;99.90;;;;;;5102516;28;20200;-77
2020/12/11 13:09:48;;;;;;;2.43;1.47;;;7.20;99.90;;;;;;5108065;28;20282;-77
2020/12/11 13:12:15;;;;;;;2.60;1.40;;;7.10;99.90;;;;;;5093770;28;20305;-76
2020/12/11 13:14:42;;;;;;;1.97;1.50;;;7.10;99.90;;;;;;5104675;28;20201;-76
2020/12/11 13:17:08;;;;;;;1.50;1.40;;;7.10;99.90;;;;;;5100548;28;20203;-76
2020/12/11 13:19:35;;;;;;;1.83;1.60;;;7.10;99.90;;;;;;5105894;28;20239;-77